Главная страница
METAR-TAF:

METAR-TAF

Аэропорты :

Харьков, Украина

широта: 49-58N, долгота: 036-08E, высота над уровнем моря: 154 м

Текущие метеонаблюдения

Эта сводка был подготовлена 22 минут назад, в 02:30 UTC
Ветер 4 Узел от северно-северо-западный
Температура 16°C
Влажность 82%
Давление 1017 hPa
Видимость 10 км и более
Нет облачности ниже 1500 м, и нет кучево-дождевой облачности

METAR: UKHH 210230Z 33002MPS CAVOK 16/13 Q1017 R25/0///72 NOSIG

Время: 05:52 (02:52 UTC)

Прогноз

Эта сводка был подготовлена 42 минут назад, в 02:10 UTC
Прогноз действительный с 21-го 03 UTC до 21-го 12 UTC
Ветер 6 Узел от северо-западный
Видимость 10 км и более
Отдельные облака на высоте 3000 фута

TAF: UKHH 210210Z 2103/2112 31003MPS 9999 SCT030 TX29/2112Z TN16/2103Z

Метеонаблюдения и прогнозы для более 4000 аэропортов (сводки METAR и TAF).

Имеющиеся станции представлены на карте желтыми и красными точками.

Чтобы увидеть название станции, наведите на нее мышь.

Затем щелкните, чтобы увидеть метеонаблюдения и метеопрогнозы.

Управление картой: чтобы увеличить масштаб, щелкните зеленые кнопки с черным крестиком; чтобы уменьшить масштаб, щелкните зеленую кнопку с тире; для просмотра соседних карт щелкайте зеленые стрелки.


METAR-TAF: